createdAt,value
2022-12-11T00:00:26.135Z,44.90
2022-12-11T00:02:53.012Z,42.40
2022-12-11T00:05:19.777Z,43.10
2022-12-11T00:07:46.627Z,43.10
2022-12-11T00:10:13.456Z,43.20
2022-12-11T00:12:40.154Z,45.50
2022-12-11T00:15:07.762Z,45.10
2022-12-11T00:17:34.842Z,43.90
2022-12-11T00:20:02.199Z,43.20
2022-12-11T00:22:30.895Z,43.20
2022-12-11T00:24:57.649Z,44.20
2022-12-11T00:27:24.552Z,43.20
2022-12-11T00:29:51.250Z,43.20
2022-12-11T00:32:17.972Z,43.20
2022-12-11T00:34:45.775Z,43.20
2022-12-11T00:37:12.575Z,43.20
2022-12-11T00:39:39.844Z,43.30
2022-12-11T00:42:07.809Z,45.40
2022-12-11T00:44:35.199Z,45.30
2022-12-11T00:47:02.041Z,43.30
2022-12-11T00:49:28.995Z,43.30
2022-12-11T00:51:55.675Z,44.30
2022-12-11T00:54:22.853Z,43.30
2022-12-11T00:56:50.683Z,43.30
2022-12-11T00:59:17.343Z,43.30
2022-12-11T01:01:44.215Z,45.00
2022-12-11T01:04:10.945Z,43.30
2022-12-11T01:06:38.923Z,45.80
2022-12-11T01:09:24.502Z,43.30
2022-12-11T01:11:52.043Z,44.70
2022-12-11T01:14:19.808Z,44.90
2022-12-11T01:16:46.736Z,43.40
2022-12-11T01:19:13.639Z,43.40
2022-12-11T01:21:41.067Z,45.70
2022-12-11T01:24:07.841Z,44.80
2022-12-11T01:26:34.591Z,44.30
2022-12-11T01:29:01.366Z,43.50
2022-12-11T01:31:28.147Z,43.40
2022-12-11T01:33:55.699Z,43.40
2022-12-11T01:36:23.098Z,44.10
2022-12-11T01:38:50.521Z,43.50
2022-12-11T01:41:18.837Z,45.00
2022-12-11T01:44:06.441Z,43.50
2022-12-11T01:46:35.383Z,44.20
2022-12-11T01:49:07.220Z,43.50
2022-12-11T01:51:40.361Z,43.50
2022-12-11T01:54:11.338Z,43.60
2022-12-11T01:56:41.749Z,43.60
2022-12-11T01:59:09.992Z,45.90
2022-12-11T02:01:52.882Z,43.60
2022-12-11T02:04:20.915Z,43.60
2022-12-11T02:06:50.269Z,45.30
2022-12-11T02:09:21.714Z,43.60
2022-12-11T02:12:07.986Z,43.60
2022-12-11T02:14:59.708Z,44.30
2022-12-11T02:17:35.462Z,44.30
2022-12-11T02:20:16.058Z,46.40
2022-12-11T02:23:07.328Z,46.00
2022-12-11T02:26:18.418Z,44.30
2022-12-11T02:28:58.245Z,44.30
2022-12-11T02:31:32.321Z,44.30
2022-12-11T02:34:04.541Z,44.30
2022-12-11T02:36:37.580Z,45.40
2022-12-11T02:39:05.626Z,43.70
2022-12-11T02:41:33.633Z,43.70
2022-12-11T02:44:03.326Z,43.70
2022-12-11T02:46:32.994Z,43.70
2022-12-11T02:49:00.687Z,43.80
2022-12-11T02:51:33.908Z,43.70
2022-12-11T02:54:03.532Z,43.80
2022-12-11T02:56:39.222Z,43.80
2022-12-11T02:59:15.538Z,43.80
2022-12-11T03:01:43.195Z,46.00
2022-12-11T03:04:10.076Z,43.80
2022-12-11T03:06:42.641Z,46.40
2022-12-11T03:09:09.712Z,44.80
2022-12-11T03:11:36.462Z,43.90
2022-12-11T03:14:05.274Z,44.80
2022-12-11T03:17:04.347Z,46.00
2022-12-11T03:19:42.931Z,43.90
2022-12-11T03:22:16.416Z,46.20
2022-12-11T03:24:51.658Z,43.90
2022-12-11T03:27:34.468Z,45.90
2022-12-11T03:30:06.865Z,44.50
2022-12-11T03:33:00.638Z,44.00
2022-12-11T03:35:35.366Z,44.00
2022-12-11T03:38:11.423Z,44.00
2022-12-11T03:40:42.007Z,44.00
2022-12-11T03:43:10.810Z,44.00
2022-12-11T03:45:38.957Z,43.90
2022-12-11T03:48:07.174Z,44.00
2022-12-11T03:50:35.186Z,44.00
2022-12-11T03:53:03.299Z,46.10
2022-12-11T03:55:32.660Z,44.00
2022-12-11T03:57:59.456Z,44.00
2022-12-11T04:00:26.526Z,44.00
2022-12-11T04:03:13.967Z,44.00
2022-12-11T04:05:52.195Z,46.40
2022-12-11T04:08:21.123Z,44.00
2022-12-11T04:10:48.421Z,46.70
2022-12-11T04:13:15.239Z,45.50
2022-12-11T04:15:42.086Z,45.80
2022-12-11T04:18:28.615Z,44.00
2022-12-11T04:21:14.704Z,46.50
2022-12-11T04:24:00.294Z,44.80
2022-12-11T04:26:27.285Z,44.70
2022-12-11T04:28:54.130Z,44.10
2022-12-11T04:31:22.749Z,44.00
2022-12-11T04:33:49.669Z,44.60
2022-12-11T04:36:16.682Z,44.10
2022-12-11T04:38:43.502Z,45.50
2022-12-11T04:41:13.555Z,44.00
2022-12-11T04:43:40.635Z,44.10
2022-12-11T04:46:09.653Z,44.00
2022-12-11T04:48:37.401Z,44.00
2022-12-11T04:51:04.929Z,45.90
2022-12-11T04:53:31.745Z,44.10
2022-12-11T04:55:58.614Z,44.00
2022-12-11T04:58:26.087Z,44.10
2022-12-11T05:00:53.324Z,44.00
2022-12-11T05:03:20.524Z,44.40
2022-12-11T05:05:51.774Z,44.70
2022-12-11T05:08:21.625Z,45.30
2022-12-11T05:11:03.132Z,44.90
2022-12-11T05:13:30.466Z,44.10
2022-12-11T05:15:57.602Z,44.00
2022-12-11T05:18:24.795Z,44.00
2022-12-11T05:20:58.718Z,46.20
2022-12-11T05:23:26.352Z,45.60
2022-12-11T05:26:01.885Z,45.80
2022-12-11T05:28:30.492Z,44.00
2022-12-11T05:30:59.617Z,46.10
2022-12-11T05:33:26.618Z,46.50
2022-12-11T05:35:54.467Z,45.70
2022-12-11T05:38:22.589Z,44.80
2022-12-11T05:41:00.762Z,44.00
2022-12-11T05:43:30.266Z,44.50
2022-12-11T05:46:06.289Z,43.90
2022-12-11T05:48:33.027Z,45.70
2022-12-11T05:51:01.084Z,45.90
2022-12-11T05:53:28.309Z,45.10
2022-12-11T05:55:55.381Z,44.00
2022-12-11T05:58:22.167Z,43.90
2022-12-11T06:00:48.914Z,43.90
2022-12-11T06:03:15.885Z,43.90
2022-12-11T06:05:43.013Z,43.90
2022-12-11T06:08:10.071Z,43.90
2022-12-11T06:10:37.249Z,43.90
2022-12-11T06:13:04.145Z,43.90
2022-12-11T06:15:30.797Z,43.80
2022-12-11T06:17:57.594Z,43.90
2022-12-11T06:20:24.325Z,43.90
2022-12-11T06:22:51.150Z,46.40
2022-12-11T06:25:18.073Z,46.30
2022-12-11T06:27:44.845Z,44.60
2022-12-11T06:30:12.163Z,46.60
2022-12-11T06:32:38.964Z,43.80
2022-12-11T06:35:06.233Z,43.80
2022-12-11T06:37:34.215Z,43.80
2022-12-11T06:40:01.042Z,43.80
2022-12-11T06:42:30.784Z,43.80
2022-12-11T06:44:59.641Z,43.80
2022-12-11T06:47:27.894Z,43.80
2022-12-11T06:49:54.744Z,43.80
2022-12-11T06:52:26.825Z,43.80
2022-12-11T06:54:53.810Z,44.30
2022-12-11T06:57:20.916Z,43.70
2022-12-11T06:59:47.611Z,43.80
2022-12-11T07:02:16.550Z,43.70
2022-12-11T07:04:43.663Z,44.60
2022-12-11T07:07:10.553Z,43.70
2022-12-11T07:09:39.794Z,43.70
2022-12-11T07:12:07.193Z,43.70
2022-12-11T07:14:34.029Z,43.70
2022-12-11T07:17:00.875Z,44.60
2022-12-11T07:19:27.760Z,43.70
2022-12-11T07:21:54.438Z,44.60
2022-12-11T07:24:21.161Z,43.70
2022-12-11T07:26:47.950Z,43.70
2022-12-11T07:29:14.695Z,43.70
2022-12-11T07:31:43.296Z,45.50
2022-12-11T07:34:12.730Z,43.80
2022-12-11T07:36:39.755Z,43.80
2022-12-11T07:39:07.478Z,43.80
2022-12-11T07:44:01.582Z,43.80
2022-12-11T07:46:30.594Z,43.80
2022-12-11T07:49:00.770Z,44.70
2022-12-11T07:51:30.422Z,44.40
2022-12-11T07:54:03.042Z,43.80
2022-12-11T07:56:30.824Z,43.70
2022-12-11T07:59:03.510Z,43.70
2022-12-11T08:01:32.164Z,43.60
2022-12-11T08:03:59.077Z,45.10
2022-12-11T08:06:31.669Z,43.60
2022-12-11T08:08:59.858Z,43.60
2022-12-11T08:11:27.532Z,43.80
2022-12-11T08:13:55.103Z,43.90
2022-12-11T08:16:22.516Z,44.10
2022-12-11T08:18:49.350Z,44.30
2022-12-11T08:21:21.751Z,44.40
2022-12-11T08:23:49.839Z,45.90
2022-12-11T08:26:19.684Z,44.60
2022-12-11T08:31:15.707Z,44.70
2022-12-11T08:33:43.042Z,44.70
2022-12-11T08:36:13.334Z,47.50
2022-12-11T08:41:12.202Z,45.30
2022-12-11T08:43:39.587Z,45.60
2022-12-11T08:46:07.216Z,45.70
2022-12-11T08:48:35.051Z,46.00
2022-12-11T08:51:03.132Z,46.20
2022-12-11T08:53:30.861Z,46.00
2022-12-11T08:56:05.542Z,46.10
2022-12-11T08:58:32.873Z,46.10
2022-12-11T09:00:59.897Z,46.20
2022-12-11T09:05:53.952Z,46.20
2022-12-11T09:08:20.867Z,46.20
2022-12-11T09:10:47.786Z,46.10
2022-12-11T09:13:14.707Z,46.10
2022-12-11T09:15:41.741Z,46.00
2022-12-11T09:18:09.745Z,46.00
2022-12-11T09:20:36.612Z,46.10
2022-12-11T09:23:03.544Z,46.00
2022-12-11T09:25:30.298Z,45.90
2022-12-11T09:27:57.049Z,45.80
2022-12-11T09:30:23.887Z,45.70
2022-12-11T09:32:51.657Z,45.70
2022-12-11T09:35:18.310Z,45.60
2022-12-11T09:37:45.147Z,46.80
2022-12-11T09:40:13.640Z,45.50
2022-12-11T09:42:52.818Z,45.40
2022-12-11T09:45:20.184Z,45.30
2022-12-11T09:47:51.630Z,45.20
2022-12-11T09:50:25.691Z,47.50
2022-12-11T09:53:28.642Z,45.10
2022-12-11T09:56:13.398Z,45.10
2022-12-11T09:59:01.498Z,45.00
2022-12-11T10:01:37.142Z,45.60
2022-12-11T10:04:27.439Z,45.50
2022-12-11T10:07:15.109Z,45.40
2022-12-11T10:09:51.464Z,46.40
2022-12-11T10:12:40.281Z,46.30
2022-12-11T10:15:25.970Z,45.30
2022-12-11T10:18:01.299Z,44.60
2022-12-11T10:20:36.447Z,45.60
2022-12-11T10:23:07.540Z,44.50
2022-12-11T10:25:39.849Z,44.50
2022-12-11T10:28:14.971Z,47.00
2022-12-11T10:31:03.205Z,45.00
2022-12-11T10:33:45.568Z,45.70
2022-12-11T10:36:18.601Z,45.40
2022-12-11T10:38:47.418Z,44.90
2022-12-11T10:41:20.885Z,44.30
2022-12-11T10:43:52.939Z,46.80
2022-12-11T10:46:19.596Z,45.90
2022-12-11T10:48:50.655Z,44.10
2022-12-11T10:51:17.769Z,44.10
2022-12-11T10:54:01.365Z,44.10
2022-12-11T10:56:33.428Z,44.70
2022-12-11T10:59:01.279Z,44.00
2022-12-11T11:01:30.916Z,44.00
2022-12-11T11:04:18.147Z,44.00
2022-12-11T11:06:44.974Z,44.60
2022-12-11T11:09:36.195Z,43.90
2022-12-11T11:12:07.923Z,44.50
2022-12-11T11:14:35.052Z,43.90
2022-12-11T11:17:02.855Z,45.60
2022-12-11T11:19:36.905Z,43.80
2022-12-11T11:22:12.957Z,44.50
2022-12-11T11:24:56.045Z,43.80
2022-12-11T11:27:42.045Z,43.70
2022-12-11T11:30:24.511Z,44.30
2022-12-11T11:33:12.214Z,44.30
2022-12-11T11:35:45.531Z,44.30
2022-12-11T11:38:19.260Z,46.30
2022-12-11T11:40:53.110Z,43.60
2022-12-11T11:43:59.006Z,43.70
2022-12-11T11:46:28.426Z,44.30
2022-12-11T11:49:10.310Z,43.60
2022-12-11T11:51:47.664Z,44.20
2022-12-11T11:54:46.826Z,44.20
2022-12-11T11:57:24.695Z,44.10
2022-12-11T11:59:55.946Z,43.60
2022-12-11T12:02:22.792Z,43.50
2022-12-11T12:04:51.254Z,43.60
2022-12-11T12:07:40.606Z,43.50
2022-12-11T12:10:31.437Z,44.20
2022-12-11T12:13:48.654Z,43.50
2022-12-11T12:16:52.703Z,43.50
2022-12-11T12:19:31.695Z,43.50
2022-12-11T12:22:08.186Z,43.40
2022-12-11T12:25:00.294Z,43.50
2022-12-11T12:27:53.908Z,44.20
2022-12-11T12:30:23.441Z,44.00
2022-12-11T12:33:26.378Z,43.40
2022-12-11T12:36:10.091Z,44.00
2022-12-11T12:39:05.654Z,44.00
2022-12-11T12:42:10.718Z,44.00
2022-12-11T12:44:59.459Z,44.00
2022-12-11T12:47:32.304Z,43.40
2022-12-11T12:50:02.487Z,45.30
2022-12-11T12:52:36.201Z,43.40
2022-12-11T12:55:25.220Z,44.50
2022-12-11T12:57:57.786Z,44.70
2022-12-11T13:00:40.539Z,43.90
2022-12-11T13:03:37.010Z,43.90
2022-12-11T13:06:07.710Z,43.80
2022-12-11T13:08:41.125Z,44.20
2022-12-11T13:11:12.002Z,43.30
2022-12-11T13:13:48.971Z,43.40
2022-12-11T13:16:18.395Z,43.90
2022-12-11T13:18:47.504Z,43.30
2022-12-11T13:21:30.835Z,44.50
2022-12-11T13:24:12.956Z,44.00
2022-12-11T13:26:40.151Z,44.90
2022-12-11T13:29:27.470Z,43.30
2022-12-11T13:32:11.293Z,43.30
2022-12-11T13:34:41.041Z,43.90
2022-12-11T13:37:32.963Z,45.40
2022-12-11T13:40:03.372Z,43.80
2022-12-11T13:42:37.066Z,45.60
2022-12-11T13:45:05.381Z,43.20
2022-12-11T13:47:32.913Z,43.10
2022-12-11T13:50:18.762Z,45.40
2022-12-11T13:52:55.311Z,43.10
2022-12-11T13:55:34.084Z,45.00
2022-12-11T13:58:01.404Z,43.70
2022-12-11T14:00:32.546Z,43.00
2022-12-11T14:03:02.954Z,43.00
2022-12-11T14:05:29.859Z,43.00
2022-12-11T14:08:02.228Z,43.00
2022-12-11T14:10:32.360Z,43.70
2022-12-11T14:13:29.749Z,42.90
2022-12-11T14:15:56.729Z,42.90
2022-12-11T14:18:27.313Z,43.90
2022-12-11T14:21:01.990Z,42.90
2022-12-11T14:23:31.694Z,43.50
2022-12-11T14:26:04.344Z,42.90
2022-12-11T14:28:38.119Z,42.80
2022-12-11T14:31:06.395Z,42.80
2022-12-11T14:33:38.397Z,42.80
2022-12-11T14:36:06.473Z,42.80
2022-12-11T14:38:37.213Z,42.80
2022-12-11T14:41:11.510Z,42.90
2022-12-11T14:43:45.503Z,44.80
2022-12-11T14:46:18.717Z,42.80
2022-12-11T14:49:00.628Z,43.10
2022-12-11T14:51:34.130Z,44.40
2022-12-11T14:54:04.071Z,43.30
2022-12-11T14:56:31.790Z,42.70
2022-12-11T14:59:06.409Z,42.70
2022-12-11T15:01:35.839Z,45.10
2022-12-11T15:04:14.622Z,43.20
2022-12-11T15:06:49.545Z,43.30
2022-12-11T15:09:37.240Z,44.50
2022-12-11T15:12:16.434Z,43.20
2022-12-11T15:14:50.904Z,43.20
2022-12-11T15:17:19.088Z,43.20
2022-12-11T15:19:51.741Z,42.70
2022-12-11T15:22:21.282Z,44.00
2022-12-11T15:24:52.697Z,42.50
2022-12-11T15:27:32.962Z,43.10
2022-12-11T15:29:59.779Z,43.10
2022-12-11T15:32:26.577Z,42.00
2022-12-11T15:35:00.320Z,42.50
2022-12-11T15:37:31.679Z,42.40
2022-12-11T15:40:01.338Z,42.40
2022-12-11T15:42:35.446Z,42.40
2022-12-11T15:45:05.260Z,42.40
2022-12-11T15:47:32.666Z,43.50
2022-12-11T15:50:02.750Z,42.40
2022-12-11T15:52:29.610Z,42.40
2022-12-11T15:54:56.249Z,42.40
2022-12-11T15:57:24.527Z,42.40
2022-12-11T15:59:53.971Z,44.20
2022-12-11T16:02:20.823Z,42.30
2022-12-11T16:04:47.578Z,44.00
2022-12-11T16:07:20.990Z,42.30
2022-12-11T16:09:49.392Z,43.90
2022-12-11T16:12:16.197Z,42.30
2022-12-11T16:14:44.539Z,44.30
2022-12-11T16:17:14.626Z,43.90
2022-12-11T16:19:43.043Z,44.50
2022-12-11T16:22:10.912Z,42.20
2022-12-11T16:24:38.264Z,43.30
2022-12-11T16:27:06.359Z,42.20
2022-12-11T16:29:37.625Z,42.70
2022-12-11T16:32:06.906Z,43.90
2022-12-11T16:34:33.925Z,42.20
2022-12-11T16:37:01.179Z,42.20
2022-12-11T16:39:28.193Z,41.20
2022-12-11T16:41:54.950Z,44.90
2022-12-11T16:44:23.572Z,42.20
2022-12-11T16:46:50.715Z,45.40
2022-12-11T16:51:44.709Z,42.10
2022-12-11T16:54:12.047Z,42.10
2022-12-11T16:56:39.223Z,44.70
2022-12-11T16:59:06.322Z,42.10
2022-12-11T17:01:33.656Z,42.10
2022-12-11T17:04:00.910Z,42.10
2022-12-11T17:06:27.867Z,42.10
2022-12-11T17:08:54.749Z,42.10
2022-12-11T17:11:23.059Z,42.10
2022-12-11T17:13:57.836Z,42.90
2022-12-11T17:16:26.452Z,42.10
2022-12-11T17:18:53.664Z,42.10
2022-12-11T17:21:22.151Z,42.10
2022-12-11T17:23:50.387Z,42.20
2022-12-11T17:26:17.306Z,42.20
2022-12-11T17:28:44.872Z,42.20
2022-12-11T17:31:17.694Z,42.20
2022-12-11T17:33:45.506Z,42.20
2022-12-11T17:36:18.169Z,42.20
2022-12-11T17:38:45.500Z,42.20
2022-12-11T17:41:20.023Z,42.20
2022-12-11T17:43:48.209Z,42.20
2022-12-11T17:46:15.016Z,42.20
2022-12-11T17:48:42.971Z,42.10
2022-12-11T17:51:12.998Z,42.10
2022-12-11T17:53:40.371Z,42.10
2022-12-11T17:56:08.538Z,42.10
2022-12-11T17:58:35.221Z,42.00
2022-12-11T18:01:07.829Z,42.00
2022-12-11T18:03:35.210Z,42.00
2022-12-11T18:06:14.726Z,42.00
2022-12-11T18:08:42.055Z,43.90
2022-12-11T18:11:13.289Z,43.50
2022-12-11T18:13:40.302Z,41.90
2022-12-11T18:16:11.322Z,41.90
2022-12-11T18:18:39.194Z,43.10
2022-12-11T18:21:06.644Z,40.90
2022-12-11T18:23:33.505Z,41.80
2022-12-11T18:26:00.476Z,42.50
2022-12-11T18:28:27.435Z,41.80
2022-12-11T18:30:54.297Z,41.70
2022-12-11T18:33:21.898Z,41.80
2022-12-11T18:35:50.267Z,41.70
2022-12-11T18:38:17.034Z,41.70
2022-12-11T18:40:43.744Z,41.60
2022-12-11T18:43:10.661Z,41.60
2022-12-11T18:45:41.952Z,41.60
2022-12-11T18:48:09.593Z,41.60
2022-12-11T18:50:36.863Z,41.60
2022-12-11T18:53:04.209Z,41.60
2022-12-11T18:55:31.089Z,41.60
2022-12-11T18:57:58.138Z,41.60
2022-12-11T19:00:26.516Z,41.60
2022-12-11T19:02:54.463Z,41.60
2022-12-11T19:05:21.297Z,41.60
2022-12-11T19:07:48.108Z,41.60
2022-12-11T19:10:14.968Z,41.60
2022-12-11T19:12:42.856Z,41.60
2022-12-11T19:15:10.865Z,41.60
2022-12-11T19:17:38.909Z,42.30
2022-12-11T19:20:32.306Z,41.60
2022-12-11T19:22:54.296Z,42.50
2022-12-11T19:25:21.130Z,41.50
2022-12-11T19:27:50.029Z,41.50
2022-12-11T19:30:16.871Z,41.40
2022-12-11T19:35:15.005Z,41.40
2022-12-11T19:37:42.305Z,41.40
2022-12-11T19:40:10.223Z,41.30
2022-12-11T19:42:36.928Z,41.30
2022-12-11T19:45:04.130Z,41.30
2022-12-11T19:47:30.837Z,41.30
2022-12-11T19:49:57.788Z,41.30
2022-12-11T19:52:25.660Z,41.30
2022-12-11T19:54:53.496Z,41.30
2022-12-11T19:57:20.161Z,41.20
2022-12-11T19:59:48.612Z,43.90
2022-12-11T20:02:19.589Z,41.20
2022-12-11T20:04:47.246Z,41.20
2022-12-11T20:07:13.954Z,41.10
2022-12-11T20:09:40.740Z,41.10
2022-12-11T20:12:10.232Z,41.10
2022-12-11T20:14:38.350Z,41.10
2022-12-11T20:17:12.375Z,41.10
2022-12-11T20:19:40.508Z,41.00
2022-12-11T20:22:09.337Z,41.00
2022-12-11T20:24:36.128Z,41.00
2022-12-11T20:27:02.998Z,41.00
2022-12-11T20:29:29.721Z,41.00
2022-12-11T20:31:57.555Z,41.00
2022-12-11T20:34:24.431Z,41.00
2022-12-11T20:36:52.526Z,41.00
2022-12-11T20:39:19.546Z,42.20
2022-12-11T20:41:46.262Z,41.00
2022-12-11T20:44:12.998Z,40.90
2022-12-11T20:46:40.784Z,40.90
2022-12-11T20:49:12.625Z,40.90
2022-12-11T20:51:40.202Z,41.00
2022-12-11T20:54:08.871Z,40.90
2022-12-11T20:56:37.528Z,40.90
2022-12-11T20:59:04.457Z,42.70
2022-12-11T21:01:32.597Z,40.90
2022-12-11T21:04:02.964Z,42.30
2022-12-11T21:06:33.367Z,40.90
2022-12-11T21:09:01.866Z,42.50
2022-12-11T21:11:29.223Z,40.90
2022-12-11T21:13:56.116Z,42.20
2022-12-11T21:16:23.750Z,40.90
2022-12-11T21:18:50.555Z,40.90
2022-12-11T21:21:17.901Z,40.80
2022-12-11T21:23:44.951Z,40.80
2022-12-11T21:26:12.086Z,40.80
2022-12-11T21:28:38.801Z,40.80
2022-12-11T21:31:08.958Z,40.80
2022-12-11T21:33:37.130Z,42.50
2022-12-11T21:36:05.819Z,40.80
2022-12-11T21:38:33.813Z,40.80
2022-12-11T21:41:22.360Z,40.80
2022-12-11T21:46:40.572Z,41.30
2022-12-11T21:49:08.405Z,40.80
2022-12-11T21:51:41.380Z,40.70
2022-12-11T21:54:14.179Z,40.80
2022-12-11T21:56:41.255Z,41.10
2022-12-11T21:59:08.317Z,40.80
2022-12-11T22:01:38.787Z,40.80
2022-12-11T22:04:05.997Z,40.80
2022-12-11T22:06:33.220Z,40.80
2022-12-11T22:09:00.294Z,40.80
2022-12-11T22:11:29.725Z,40.90
2022-12-11T22:13:56.749Z,40.90
2022-12-11T22:16:23.777Z,40.90
2022-12-11T22:18:50.745Z,40.90
2022-12-11T22:21:17.811Z,43.00
2022-12-11T22:23:44.834Z,40.90
2022-12-11T22:26:16.458Z,40.90
2022-12-11T22:28:43.308Z,41.00
2022-12-11T22:31:12.128Z,40.90
2022-12-11T22:33:39.156Z,43.50
2022-12-11T22:36:06.551Z,41.00
2022-12-11T22:38:34.541Z,41.00
2022-12-11T22:41:09.072Z,41.00
2022-12-11T22:43:36.873Z,40.90
2022-12-11T22:46:03.789Z,41.00
2022-12-11T22:48:30.957Z,41.00
2022-12-11T22:50:57.894Z,41.00
2022-12-11T22:53:25.817Z,41.00
2022-12-11T22:55:53.353Z,41.00
2022-12-11T22:58:21.866Z,41.00
2022-12-11T23:00:49.297Z,41.10
2022-12-11T23:03:17.087Z,41.00
2022-12-11T23:05:43.801Z,41.10
2022-12-11T23:08:10.647Z,41.10
2022-12-11T23:10:40.831Z,41.00
2022-12-11T23:13:08.321Z,41.00
2022-12-11T23:15:34.989Z,42.30
2022-12-11T23:18:01.947Z,41.10
2022-12-11T23:20:29.024Z,41.10
2022-12-11T23:22:55.834Z,41.10
2022-12-11T23:25:22.664Z,41.10
2022-12-11T23:27:49.658Z,41.10
2022-12-11T23:30:16.406Z,41.10
2022-12-11T23:32:43.131Z,41.10
2022-12-11T23:35:10.372Z,41.10
2022-12-11T23:37:37.428Z,41.20
2022-12-11T23:40:05.330Z,41.10
2022-12-11T23:42:33.876Z,41.10
2022-12-11T23:45:00.698Z,41.20
2022-12-11T23:47:27.819Z,41.20
2022-12-11T23:49:54.586Z,41.20
2022-12-11T23:52:22.557Z,41.20
2022-12-11T23:54:51.364Z,41.20
2022-12-11T23:57:18.174Z,40.90
2022-12-11T23:59:45.872Z,41.20
